Time;durP1;ratioP1;P1;durP2;ratioP2;P2;SDS_P1;SDS_P2;PMS_P1;PMS_P2;Temp;Humidity;BMP_temperature;BMP_pressure;BME280_temperature;BME280_humidity;BME280_pressure;Samples;Min_cycle;Max_cycle;Signal;HPM_P1;HPM_P2
2021/11/05 00:02:13;;;;;;;15.48;8.68;;;;;;;2.05;100.00;96618.84;4975685;28;20070;-58
2021/11/05 00:04:38;;;;;;;15.65;9.75;;;;;;;2.02;100.00;96621.38;4981359;28;20038;-61
2021/11/05 00:07:05;;;;;;;16.40;8.68;;;;;;;1.94;100.00;96624.81;4977472;28;20527;-58
2021/11/05 00:09:30;;;;;;;14.35;8.90;;;;;;;1.91;100.00;96629.75;4988128;28;20049;-60
2021/11/05 00:11:56;;;;;;;14.27;9.13;;;;;;;1.90;100.00;96630.06;4976966;28;20042;-56
2021/11/05 00:14:21;;;;;;;16.88;10.65;;;;;;;1.88;100.00;96624.16;4990073;28;20090;-56
2021/11/05 00:16:47;;;;;;;15.55;9.30;;;;;;;1.89;100.00;96628.44;4990163;28;20491;-61
2021/11/05 00:19:13;;;;;;;16.67;9.40;;;;;;;1.86;100.00;96627.19;4975158;28;20046;-59
2021/11/05 00:21:39;;;;;;;16.60;10.02;;;;;;;1.85;100.00;96627.50;4980690;28;20097;-58
2021/11/05 00:24:05;;;;;;;15.88;10.13;;;;;;;1.88;100.00;96632.28;4980940;28;20073;-60
2021/11/05 00:26:32;;;;;;;17.27;10.85;;;;;;;2.04;100.00;96628.03;4998951;28;20590;-60
2021/11/05 00:28:58;;;;;;;19.73;10.02;;;;;;;1.92;100.00;96631.31;5000206;28;20400;-59
2021/11/05 00:31:23;;;;;;;17.05;10.07;;;;;;;1.86;100.00;96631.78;4993046;28;20049;-59
2021/11/05 00:33:49;;;;;;;18.08;10.55;;;;;;;1.87;100.00;96630.66;5000677;28;20077;-58
2021/11/05 00:36:14;;;;;;;18.45;10.20;;;;;;;2.02;100.00;96638.38;4994512;28;20037;-60
2021/11/05 00:38:45;;;;;;;18.25;10.15;;;;;;;2.20;100.00;96636.53;5000245;28;20467;-60
2021/11/05 00:41:11;;;;;;;17.10;10.20;;;;;;;2.31;100.00;96637.03;4994755;28;20077;-60
2021/11/05 00:43:37;;;;;;;16.85;10.25;;;;;;;2.41;100.00;96642.16;5000212;28;20112;-60
2021/11/05 00:46:03;;;;;;;16.27;9.35;;;;;;;2.54;100.00;96640.41;4998392;28;20495;-61
2021/11/05 00:48:28;;;;;;;13.25;9.02;;;;;;;2.63;100.00;96641.22;4995893;28;20767;-60
2021/11/05 00:50:54;;;;;;;13.55;8.52;;;;;;;2.68;100.00;96648.38;4999904;28;20042;-59
2021/11/05 00:53:19;;;;;;;23.88;11.40;;;;;;;2.67;100.00;96649.50;4998073;28;20044;-59
2021/11/05 00:55:45;;;;;;;14.02;9.50;;;;;;;2.66;100.00;96653.28;5003205;28;20136;-60
2021/11/05 00:58:10;;;;;;;12.68;8.43;;;;;;;2.77;100.00;96657.28;4998244;28;20056;-59
2021/11/05 01:00:36;;;;;;;12.90;8.63;;;;;;;2.71;100.00;96661.25;5002972;28;20128;-56
2021/11/05 01:03:02;;;;;;;12.45;8.02;;;;;;;2.29;100.00;96667.06;4997596;28;20487;-56
2021/11/05 01:05:27;;;;;;;12.18;8.20;;;;;;;2.12;100.00;96666.22;4979771;28;20041;-59
2021/11/05 01:07:53;;;;;;;17.20;9.50;;;;;;;2.12;100.00;96661.59;4982600;28;20058;-58
2021/11/05 01:10:18;;;;;;;19.25;10.40;;;;;;;2.14;100.00;96662.06;4978686;28;20849;-59
2021/11/05 01:12:44;;;;;;;17.15;10.50;;;;;;;2.22;100.00;96669.44;4983771;28;20042;-59
2021/11/05 01:15:12;;;;;;;16.95;10.98;;;;;;;2.22;100.00;96668.63;4978910;28;20049;-60
2021/11/05 01:17:39;;;;;;;20.45;12.00;;;;;;;2.12;100.00;96656.19;4983205;28;20519;-60
2021/11/05 01:20:08;;;;;;;19.25;11.95;;;;;;;2.10;100.00;96666.50;4979957;28;20077;-61
2021/11/05 01:22:33;;;;;;;21.30;12.07;;;;;;;2.09;100.00;96664.94;4982023;28;20038;-59
2021/11/05 01:24:59;;;;;;;23.58;11.48;;;;;;;2.06;100.00;96669.03;4984173;28;20403;-59
2021/11/05 01:27:24;;;;;;;20.35;11.43;;;;;;;2.01;100.00;96669.19;4978741;28;20045;-60
2021/11/05 01:29:52;;;;;;;18.52;11.57;;;;;;;2.06;100.00;96679.84;4981181;28;20042;-59
2021/11/05 01:32:17;;;;;;;19.60;12.05;;;;;;;2.06;100.00;96679.06;4978255;28;20085;-58
2021/11/05 01:34:44;;;;;;;21.60;12.35;;;;;;;2.12;100.00;96677.00;4981891;28;20066;-58
2021/11/05 01:37:09;;;;;;;20.55;12.45;;;;;;;2.19;100.00;96680.84;4977272;28;20051;-57
2021/11/05 01:39:35;;;;;;;23.27;12.68;;;;;;;2.27;100.00;96671.19;4981191;28;20112;-58
2021/11/05 01:42:01;;;;;;;22.30;12.85;;;;;;;2.34;100.00;96671.53;4983094;28;20046;-59
2021/11/05 01:44:27;;;;;;;20.48;11.70;;;;;;;2.46;100.00;96673.63;4976186;28;20085;-59
2021/11/05 01:46:52;;;;;;;16.75;10.95;;;;;;;2.60;100.00;96670.81;4974843;28;20038;-59
2021/11/05 01:49:18;;;;;;;20.02;10.77;;;;;;;2.71;100.00;96663.19;4977761;28;20081;-57
2021/11/05 01:51:45;;;;;;;17.05;10.32;;;;;;;2.79;100.00;96667.78;4965225;28;20105;-56
2021/11/05 01:54:12;;;;;;;14.98;9.50;;;;;;;2.79;100.00;96656.97;4969353;28;20138;-59
2021/11/05 01:56:40;;;;;;;15.82;9.52;;;;;;;2.85;100.00;96664.63;4979059;28;20049;-59
2021/11/05 01:59:05;;;;;;;17.05;10.60;;;;;;;2.87;100.00;96661.59;4971540;28;20533;-58
2021/11/05 02:01:31;;;;;;;15.98;9.65;;;;;;;2.79;100.00;96665.09;4974782;28;20132;-59
2021/11/05 02:03:57;;;;;;;20.45;9.65;;;;;;;2.73;100.00;96660.94;4973825;28;20077;-58
2021/11/05 02:06:23;;;;;;;15.50;9.80;;;;;;;2.73;100.00;96674.47;4976634;28;20750;-58
2021/11/05 02:08:51;;;;;;;15.93;9.10;;;;;;;2.76;100.00;96666.53;4983854;28;20046;-58
2021/11/05 02:11:18;;;;;;;26.27;12.70;;;;;;;2.71;100.00;96663.97;4961643;28;20051;-58
2021/11/05 02:13:46;;;;;;;27.02;12.35;;;;;;;2.67;100.00;96671.91;4973443;28;20046;-59
2021/11/05 02:16:12;;;;;;;26.63;11.50;;;;;;;2.66;100.00;96666.81;4967207;28;20053;-60
2021/11/05 02:18:39;;;;;;;22.17;11.25;;;;;;;2.67;100.00;96671.13;4972688;28;20042;-58
2021/11/05 02:21:07;;;;;;;23.42;11.93;;;;;;;2.79;100.00;96665.09;4970581;28;20066;-61
2021/11/05 02:23:33;;;;;;;22.88;12.00;;;;;;;2.80;100.00;96666.69;4976382;28;20062;-60
2021/11/05 02:25:58;;;;;;;16.38;10.15;;;;;;;2.81;100.00;96665.56;4980537;28;20170;-59
2021/11/05 02:28:23;;;;;;;15.40;9.90;;;;;;;2.65;100.00;96676.06;4976139;28;20049;-59
2021/11/05 02:30:50;;;;;;;16.80;9.93;;;;;;;2.52;100.00;96677.78;4979935;28;20523;-59
2021/11/05 02:33:16;;;;;;;18.20;10.18;;;;;;;2.52;100.00;96677.78;4969142;28;20042;-58
2021/11/05 02:35:42;;;;;;;14.75;9.00;;;;;;;2.62;100.00;96674.75;4979471;28;20550;-60
2021/11/05 02:38:08;;;;;;;16.52;9.15;;;;;;;2.78;100.00;96677.03;4974217;28;20455;-58
2021/11/05 02:40:33;;;;;;;16.00;9.60;;;;;;;2.90;100.00;96679.91;4982817;28;20047;-58
2021/11/05 02:42:59;;;;;;;16.15;9.88;;;;;;;2.87;100.00;96672.44;4982812;28;20042;-61
2021/11/05 02:45:24;;;;;;;17.65;9.65;;;;;;;2.84;100.00;96681.94;4968048;28;20480;-59
2021/11/05 02:47:50;;;;;;;13.02;9.07;;;;;;;2.95;100.00;96687.84;4971901;28;20349;-58
2021/11/05 02:50:16;;;;;;;14.32;9.60;;;;;;;3.03;100.00;96686.28;4967866;28;20074;-60
2021/11/05 02:52:42;;;;;;;14.57;9.45;;;;;;;3.06;100.00;96689.16;4980484;28;20100;-59
2021/11/05 02:55:10;;;;;;;14.18;9.68;;;;;;;3.01;100.00;96686.59;4970847;28;20137;-56
2021/11/05 02:57:36;;;;;;;17.40;9.63;;;;;;;3.06;100.00;96697.28;4992241;28;20159;-60
2021/11/05 03:00:05;;;;;;;19.60;10.68;;;;;;;3.10;100.00;96699.31;4980505;28;20448;-59
2021/11/05 03:02:30;;;;;;;13.02;8.43;;;;;;;3.04;100.00;96696.78;4980798;28;20054;-59
2021/11/05 03:04:55;;;;;;;14.65;8.90;;;;;;;3.02;100.00;96699.00;4978551;28;20037;-60
2021/11/05 03:07:21;;;;;;;15.98;10.15;;;;;;;2.99;100.00;96713.19;4971137;28;20281;-60
2021/11/05 03:09:48;;;;;;;14.00;9.32;;;;;;;3.04;100.00;96701.38;4982286;28;20058;-64
2021/11/05 03:12:14;;;;;;;16.40;9.38;;;;;;;3.09;100.00;96703.16;4988071;28;20139;-60
2021/11/05 03:14:40;;;;;;;16.52;9.73;;;;;;;3.02;100.00;96707.13;4996443;28;20069;-59
2021/11/05 03:17:07;;;;;;;17.80;8.75;;;;;;;2.98;100.00;96713.50;4979065;28;20107;-58
2021/11/05 03:19:33;;;;;;;16.70;9.75;;;;;;;2.92;100.00;96717.44;4980560;28;20109;-57
2021/11/05 03:21:58;;;;;;;15.35;9.60;;;;;;;2.87;100.00;96719.19;4984574;28;20522;-58
2021/11/05 03:24:24;;;;;;;17.02;10.20;;;;;;;2.88;100.00;96722.69;4993775;28;20042;-57
2021/11/05 03:26:50;;;;;;;14.63;9.10;;;;;;;3.02;100.00;96723.34;4986610;28;20059;-60
2021/11/05 03:29:16;;;;;;;16.67;9.75;;;;;;;3.08;100.00;96732.13;4973089;28;20049;-60
2021/11/05 03:31:42;;;;;;;15.13;9.18;;;;;;;3.11;100.00;96733.41;4973024;28;20358;-58
2021/11/05 03:34:08;;;;;;;14.63;9.55;;;;;;;3.23;100.00;96736.28;4976599;28;20488;-59
2021/11/05 03:36:33;;;;;;;15.85;9.27;;;;;;;3.37;100.00;96728.78;4972863;28;20399;-59
2021/11/05 03:38:59;;;;;;;17.65;9.25;;;;;;;3.49;100.00;96735.47;4971100;28;20042;-60
2021/11/05 03:41:25;;;;;;;13.73;8.90;;;;;;;3.57;100.00;96743.59;4971652;28;20061;-60
2021/11/05 03:43:51;;;;;;;12.45;8.48;;;;;;;3.61;100.00;96746.47;4975585;28;20491;-60
2021/11/05 03:46:17;;;;;;;13.10;7.97;;;;;;;3.70;100.00;96749.16;4968341;28;20046;-60
2021/11/05 03:48:42;;;;;;;13.20;8.20;;;;;;;3.69;100.00;96750.28;4977590;28;20523;-60
2021/11/05 03:51:08;;;;;;;13.90;8.63;;;;;;;3.70;100.00;96752.66;4973484;28;20047;-61
2021/11/05 03:53:35;;;;;;;13.63;8.95;;;;;;;3.66;100.00;96762.56;4992002;28;20042;-60
2021/11/05 03:56:01;;;;;;;13.02;8.50;;;;;;;3.57;100.00;96761.78;4979855;28;20109;-60
2021/11/05 03:58:27;;;;;;;11.75;8.13;;;;;;;3.53;100.00;96761.59;4971987;28;20056;-60
2021/11/05 04:00:53;;;;;;;16.38;8.85;;;;;;;3.42;100.00;96758.44;4971985;28;20038;-61
2021/11/05 04:03:19;;;;;;;14.57;8.77;;;;;;;3.37;100.00;96763.22;4973055;28;20081;-60
2021/11/05 04:05:44;;;;;;;13.70;8.75;;;;;;;3.31;100.00;96767.16;4979527;28;20038;-60
2021/11/05 04:08:10;;;;;;;12.93;9.18;;;;;;;3.24;100.00;96762.22;4962891;28;20045;-59
2021/11/05 04:10:36;;;;;;;15.13;9.68;;;;;;;3.15;100.00;96772.25;4966272;28;20038;-61
2021/11/05 04:13:02;;;;;;;14.18;9.60;;;;;;;3.08;100.00;96766.50;4969710;28;20043;-60
2021/11/05 04:15:28;;;;;;;16.70;9.60;;;;;;;3.06;100.00;96775.75;4974448;28;20038;-57
2021/11/05 04:17:54;;;;;;;16.10;9.68;;;;;;;3.11;100.00;96777.50;4979493;28;20047;-60
2021/11/05 04:20:20;;;;;;;13.68;9.35;;;;;;;3.28;100.00;96782.16;4966528;28;20396;-57
2021/11/05 04:22:45;;;;;;;20.98;9.48;;;;;;;3.44;100.00;96777.06;4980663;28;20046;-58
2021/11/05 04:25:11;;;;;;;12.50;8.15;;;;;;;3.58;100.00;96787.72;4970625;28;20505;-59
2021/11/05 04:27:37;;;;;;;13.55;8.63;;;;;;;3.61;100.00;96785.16;4981724;28;20042;-59
2021/11/05 04:30:05;;;;;;;14.05;8.35;;;;;;;3.64;100.00;96789.16;4975823;28;20407;-61
2021/11/05 04:32:31;;;;;;;15.93;8.82;;;;;;;3.66;100.00;96781.50;4967581;28;20086;-60
2021/11/05 04:34:56;;;;;;;12.77;9.38;;;;;;;3.66;100.00;96791.56;4972916;28;20047;-59
2021/11/05 04:37:22;;;;;;;13.45;8.35;;;;;;;3.68;100.00;96794.75;4970324;28;20054;-59
2021/11/05 04:39:47;;;;;;;13.40;8.13;;;;;;;3.67;100.00;96806.69;4985035;28;20124;-59
2021/11/05 04:42:13;;;;;;;11.73;7.80;;;;;;;3.70;100.00;96803.34;4964003;28;20042;-58
2021/11/05 04:44:38;;;;;;;14.07;7.90;;;;;;;3.76;100.00;96808.28;4980897;28;20074;-60
2021/11/05 04:47:04;;;;;;;12.10;7.78;;;;;;;3.80;100.00;96809.25;4965934;28;20492;-61
2021/11/05 04:49:30;;;;;;;10.93;7.57;;;;;;;3.85;100.00;96808.25;4970397;28;20039;-60
2021/11/05 04:51:55;;;;;;;14.23;7.57;;;;;;;3.92;100.00;96810.50;4976254;28;20100;-58
2021/11/05 04:54:21;;;;;;;12.50;8.13;;;;;;;3.96;100.00;96806.84;4979398;28;21053;-60
2021/11/05 04:56:47;;;;;;;16.45;8.20;;;;;;;3.95;100.00;96810.66;4995181;28;20051;-59
2021/11/05 04:59:16;;;;;;;14.88;8.40;;;;;;;3.97;100.00;96811.13;4978200;28;20038;-59
2021/11/05 05:01:41;;;;;;;16.30;9.00;;;;;;;4.00;100.00;96812.41;4976909;28;20054;-60
2021/11/05 05:04:07;;;;;;;16.98;8.70;;;;;;;3.83;100.00;96816.72;4979999;28;20050;-59
2021/11/05 05:06:32;;;;;;;15.55;9.07;;;;;;;3.77;100.00;96814.50;4978299;28;20065;-61
2021/11/05 05:08:58;;;;;;;16.20;9.95;;;;;;;3.81;100.00;96824.38;4981909;28;20113;-58
2021/11/05 05:11:23;;;;;;;15.35;10.32;;;;;;;3.88;100.00;96829.31;4974520;28;20332;-59
2021/11/05 05:13:49;;;;;;;15.20;9.40;;;;;;;3.92;100.00;96835.66;4978399;28;20045;-58
2021/11/05 05:16:14;;;;;;;12.93;8.43;;;;;;;3.97;100.00;96834.72;4987410;28;20365;-59
2021/11/05 05:18:41;;;;;;;14.27;8.02;;;;;;;4.00;100.00;96837.59;4978697;28;20108;-60
2021/11/05 05:21:06;;;;;;;13.82;8.18;;;;;;;4.04;100.00;96835.03;4973500;28;20058;-58
2021/11/05 05:23:32;;;;;;;13.45;7.63;;;;;;;4.08;100.00;96833.28;4967557;28;20078;-59
2021/11/05 05:25:58;;;;;;;13.13;8.32;;;;;;;4.11;100.00;96845.41;4983345;28;20073;-60
2021/11/05 05:28:23;;;;;;;13.70;8.65;;;;;;;4.09;100.00;96848.44;4979664;28;20160;-59
2021/11/05 05:30:49;;;;;;;14.82;8.45;;;;;;;4.11;100.00;96851.63;4993895;28;20050;-59
2021/11/05 05:33:15;;;;;;;11.82;7.28;;;;;;;4.14;100.00;96850.97;4976326;28;20510;-56
2021/11/05 05:35:40;;;;;;;11.93;7.95;;;;;;;4.14;100.00;96855.59;4981360;28;20046;-60
2021/11/05 05:38:06;;;;;;;13.95;8.73;;;;;;;4.16;100.00;96861.47;4971507;28;20106;-58
2021/11/05 05:40:31;;;;;;;16.15;9.30;;;;;;;4.22;100.00;96857.50;4971146;28;20043;-61
2021/11/05 05:42:57;;;;;;;16.40;9.30;;;;;;;4.12;100.00;96865.97;4980369;28;20073;-58
2021/11/05 05:45:22;;;;;;;14.80;9.13;;;;;;;4.08;100.00;96868.50;4975058;28;20053;-59
2021/11/05 05:47:48;;;;;;;14.30;8.70;;;;;;;4.10;100.00;96860.84;4978256;28;20042;-60
2021/11/05 05:50:15;;;;;;;13.93;8.38;;;;;;;4.18;100.00;96864.69;4971864;28;20122;-59
2021/11/05 05:52:41;;;;;;;13.93;8.73;;;;;;;4.17;100.00;96868.50;4980534;28;20049;-58
2021/11/05 05:55:09;;;;;;;12.63;8.00;;;;;;;4.16;100.00;96869.59;4976203;28;20038;-58
2021/11/05 05:57:35;;;;;;;13.60;8.68;;;;;;;4.12;100.00;96877.59;4984720;28;20081;-58
2021/11/05 06:00:00;;;;;;;14.98;8.73;;;;;;;4.11;100.00;96881.44;5007364;28;20054;-57
2021/11/05 06:02:28;;;;;;;11.43;7.45;;;;;;;4.07;100.00;96880.47;4976595;28;20375;-56
2021/11/05 06:04:54;;;;;;;11.77;8.13;;;;;;;4.06;100.00;96883.50;4982820;28;20046;-56
2021/11/05 06:07:20;;;;;;;14.02;8.20;;;;;;;4.04;100.00;96883.81;4976876;28;20069;-58
2021/11/05 06:09:46;;;;;;;12.88;8.32;;;;;;;4.02;100.00;96897.69;4982520;28;20042;-59
2021/11/05 06:12:11;;;;;;;13.15;8.38;;;;;;;4.08;100.00;96897.53;4976104;28;20397;-58
2021/11/05 06:14:36;;;;;;;12.90;8.70;;;;;;;4.13;100.00;96903.59;4979788;28;20074;-59
2021/11/05 06:17:02;;;;;;;25.85;13.90;;;;;;;4.14;100.00;96902.50;4979494;28;20048;-60
2021/11/05 06:19:28;;;;;;;16.40;9.05;;;;;;;4.09;100.00;96902.66;4979433;28;20047;-60
2021/11/05 06:21:54;;;;;;;13.13;8.38;;;;;;;4.15;100.00;96906.00;4974652;28;20054;-59
2021/11/05 06:24:20;;;;;;;11.80;8.27;;;;;;;4.17;100.00;96912.66;4969375;28;20082;-60
2021/11/05 06:26:46;;;;;;;14.98;8.82;;;;;;;4.14;100.00;96907.91;4978894;28;20491;-59
2021/11/05 06:29:11;;;;;;;12.82;8.20;;;;;;;4.06;100.00;96916.03;4969769;28;20042;-58
2021/11/05 06:31:37;;;;;;;15.50;8.27;;;;;;;3.89;100.00;96908.69;4978213;28;20050;-59
2021/11/05 06:34:04;;;;;;;16.95;8.70;;;;;;;3.82;100.00;96922.72;4979083;28;20112;-60
2021/11/05 06:36:30;;;;;;;14.10;8.45;;;;;;;3.76;100.00;96927.50;4976739;28;20046;-59
2021/11/05 06:38:56;;;;;;;15.05;8.73;;;;;;;3.88;100.00;96936.91;4979157;28;20042;-59
2021/11/05 06:41:22;;;;;;;14.63;8.30;;;;;;;4.00;100.00;96935.16;4968444;28;20125;-60
2021/11/05 06:43:48;;;;;;;12.50;8.50;;;;;;;4.12;100.00;96939.16;4974282;28;20100;-57
2021/11/05 06:46:13;;;;;;;14.55;8.75;;;;;;;4.20;100.00;96943.78;4976531;28;20120;-60
2021/11/05 06:48:39;;;;;;;13.77;8.57;;;;;;;4.33;100.00;96950.94;4980907;28;20132;-60
2021/11/05 06:51:04;;;;;;;13.05;8.05;;;;;;;4.44;100.00;96945.22;4965240;28;20492;-60
2021/11/05 06:53:30;;;;;;;13.40;8.20;;;;;;;4.57;100.00;96955.06;4963059;28;20096;-59
2021/11/05 06:55:55;;;;;;;21.05;8.00;;;;;;;4.68;100.00;96967.22;4971071;28;20407;-60
2021/11/05 06:58:21;;;;;;;12.32;7.50;;;;;;;4.74;100.00;96965.13;4982151;28;20044;-60
2021/11/05 07:00:48;;;;;;;11.35;7.63;;;;;;;4.90;100.00;96965.41;5002473;28;20050;-60
2021/11/05 07:03:14;;;;;;;11.35;7.38;;;;;;;5.00;100.00;96973.19;4971614;28;20069;-59
2021/11/05 07:05:39;;;;;;;11.80;7.70;;;;;;;5.13;100.00;96982.25;4969082;28;20049;-60
2021/11/05 07:08:05;;;;;;;8.85;6.45;;;;;;;5.21;100.00;96988.81;4972132;28;20035;-59
2021/11/05 07:10:30;;;;;;;13.90;7.95;;;;;;;5.25;100.00;96992.47;4962861;28;20405;-58
2021/11/05 07:12:56;;;;;;;13.25;7.80;;;;;;;5.22;100.00;96998.53;4963197;28;20042;-60
2021/11/05 07:15:21;;;;;;;12.27;8.10;;;;;;;5.23;100.00;96992.00;4975735;28;20068;-60
2021/11/05 07:17:47;;;;;;;13.30;7.70;;;;;;;5.25;100.00;97006.03;4979203;28;20070;-57
2021/11/05 07:20:14;;;;;;;10.60;6.95;;;;;;;5.30;100.00;97003.16;4957269;28;20115;-60
2021/11/05 07:22:44;;;;;;;19.13;8.02;;;;;;;5.35;100.00;97005.69;4965793;28;20095;-62
2021/11/05 07:25:11;;;;;;;12.02;8.30;;;;;;;5.38;100.00;97015.09;4969648;28;20043;-61
2021/11/05 07:27:37;;;;;;;13.80;8.00;;;;;;;5.41;100.00;97017.97;4995070;28;20052;-59
2021/11/05 07:30:08;;;;;;;16.58;7.80;;;;;;;5.43;100.00;97020.34;4980334;28;20042;-61
2021/11/05 07:32:33;;;;;;;14.70;8.45;;;;;;;5.49;100.00;97024.47;4980493;28;20066;-59
2021/11/05 07:34:59;;;;;;;17.33;8.10;;;;;;;5.55;100.00;97017.75;4981675;28;20072;-58
2021/11/05 07:37:24;;;;;;;11.90;7.70;;;;;;;5.64;100.00;97025.88;4975970;28;20511;-60
2021/11/05 07:39:50;;;;;;;13.63;8.00;;;;;;;5.67;100.00;97030.66;4971779;28;20038;-55
2021/11/05 07:42:16;;;;;;;17.55;8.75;;;;;;;5.71;100.00;97032.41;4975926;28;20491;-60
2021/11/05 07:44:42;;;;;;;16.83;7.97;;;;;;;5.72;100.00;97033.19;4979217;28;20042;-59
2021/11/05 07:47:07;;;;;;;17.27;8.43;;;;;;;5.51;100.00;97047.50;4967791;28;20435;-59
2021/11/05 07:49:33;;;;;;;16.88;11.40;;;;;;;5.26;100.00;97051.88;4977821;28;20045;-59
2021/11/05 07:52:00;;;;;;;15.85;9.85;;;;;;;5.33;100.00;97054.91;4981271;28;20038;-59
2021/11/05 07:54:25;;;;;;;14.07;8.15;;;;;;;5.24;100.00;97064.19;4975961;28;20042;-58
2021/11/05 07:56:51;;;;;;;14.30;9.15;;;;;;;5.13;100.00;97056.38;4979692;28;20046;-60
2021/11/05 07:59:17;;;;;;;14.10;9.15;;;;;;;5.11;100.00;97069.50;4978252;28;20054;-60
2021/11/05 08:01:43;;;;;;;16.88;9.85;;;;;;;5.03;100.00;97083.06;4970380;28;20133;-60
2021/11/05 08:04:08;;;;;;;13.98;9.38;;;;;;;5.04;100.00;97076.50;4969964;28;20034;-59
2021/11/05 08:06:34;;;;;;;15.27;10.23;;;;;;;5.03;100.00;97077.66;4961739;28;20046;-60
2021/11/05 08:09:00;;;;;;;14.23;9.82;;;;;;;5.14;100.00;97092.47;4960636;28;20049;-59
2021/11/05 08:11:29;;;;;;;14.05;9.27;;;;;;;5.43;100.00;97091.00;4956243;28;20043;-60
2021/11/05 08:13:55;;;;;;;13.50;8.75;;;;;;;5.66;100.00;97086.91;4968144;28;20129;-58
2021/11/05 08:16:21;;;;;;;12.93;8.38;;;;;;;5.85;100.00;97097.41;4966885;28;20073;-59
2021/11/05 08:18:47;;;;;;;11.95;7.93;;;;;;;5.98;100.00;97098.34;4978328;28;20128;-60
2021/11/05 08:21:12;;;;;;;16.48;7.95;;;;;;;6.10;100.00;97095.75;4956275;28;20046;-59
2021/11/05 08:23:38;;;;;;;13.98;8.07;;;;;;;6.20;100.00;97100.00;4959798;28;20046;-60
2021/11/05 08:26:06;;;;;;;12.23;8.40;;;;;;;6.29;100.00;97103.47;4961916;28;20052;-59
2021/11/05 08:28:33;;;;;;;11.68;7.60;;;;;;;6.36;100.00;97107.63;4980007;28;20046;-58
2021/11/05 08:30:58;;;;;;;12.25;7.65;;;;;;;6.45;100.00;97111.88;4961411;28;20070;-59
2021/11/05 08:33:24;;;;;;;13.35;8.63;;;;;;;6.54;100.00;97114.53;4956413;28;20137;-59
2021/11/05 08:35:51;;;;;;;10.90;7.50;;;;;;;6.56;100.00;97125.88;4961561;28;20502;-59
2021/11/05 08:38:21;;;;;;;10.27;7.45;;;;;;;6.64;100.00;97126.94;4955723;28;20055;-60
2021/11/05 08:40:52;;;;;;;11.70;7.25;;;;;;;6.54;100.00;97119.19;4965077;28;20034;-59
2021/11/05 08:43:21;;;;;;;13.95;8.10;;;;;;;6.17;100.00;97127.06;4963243;28;20559;-59
2021/11/05 08:45:47;;;;;;;11.88;7.35;;;;;;;6.25;100.00;97128.94;4989234;28;20357;-56
2021/11/05 08:48:14;;;;;;;12.20;7.90;;;;;;;6.44;100.00;97120.34;4976375;28;20066;-57
2021/11/05 08:50:40;;;;;;;9.55;6.32;;;;;;;6.73;100.00;97129.63;4972367;28;20150;-59
2021/11/05 08:53:06;;;;;;;8.63;6.47;;;;;;;6.64;100.00;97135.91;4975481;28;20575;-58
2021/11/05 08:55:32;;;;;;;9.02;5.93;;;;;;;6.75;100.00;97139.03;4979035;28;20044;-60
2021/11/05 08:57:57;;;;;;;8.95;6.43;;;;;;;7.14;98.81;97145.16;4978401;28;20519;-59
2021/11/05 09:00:27;;;;;;;10.82;5.82;;;;;;;7.25;97.68;97138.16;4972945;28;20277;-61
2021/11/05 09:02:53;;;;;;;;;;;;;;;7.30;97.08;97144.56;4980118;28;20519;-57
2021/11/05 09:05:19;;;;;;;10.48;6.25;;;;;;;7.36;97.00;97152.19;4959524;28;19920;-61
2021/11/05 09:07:45;;;;;;;8.23;5.80;;;;;;;7.43;96.73;97154.38;4975242;28;20042;-60
2021/11/05 09:10:12;;;;;;;8.20;5.70;;;;;;;7.59;95.89;97158.06;4973195;28;20072;-61
2021/11/05 09:12:39;;;;;;;9.50;6.30;;;;;;;7.72;94.85;97163.56;4975694;28;20060;-61
2021/11/05 09:15:06;;;;;;;8.30;5.25;;;;;;;7.83;94.42;97167.44;4977278;28;20125;-60
2021/11/05 09:17:33;;;;;;;8.55;5.78;;;;;;;7.71;95.42;97168.22;4983505;28;20146;-61
2021/11/05 09:19:58;;;;;;;10.75;7.97;;;;;;;7.95;94.63;97169.41;4963492;28;20409;-59
2021/11/05 09:22:23;;;;;;;8.15;5.45;;;;;;;8.08;94.03;97172.97;4962128;28;20046;-61
2021/11/05 09:24:50;;;;;;;7.38;5.32;;;;;;;7.89;93.65;97178.97;4983221;28;20085;-61
2021/11/05 09:27:16;;;;;;;11.23;6.75;;;;;;;7.69;94.12;97186.84;4964769;28;20130;-60
2021/11/05 09:29:42;;;;;;;8.57;5.00;;;;;;;7.85;93.20;97187.81;4964976;28;20042;-61
2021/11/05 09:32:08;;;;;;;7.95;5.53;;;;;;;7.87;93.38;97187.47;4971385;28;20054;-57
2021/11/05 09:34:33;;;;;;;11.20;5.15;;;;;;;7.41;96.16;97186.63;4974409;28;20065;-58
2021/11/05 09:37:01;;;;;;;7.22;4.70;;;;;;;7.65;97.04;97189.47;4978661;28;20046;-60
2021/11/05 09:39:30;;;;;;;7.55;4.20;;;;;;;7.93;94.76;97204.41;4972121;28;20515;-60
2021/11/05 09:41:55;;;;;;;6.90;4.47;;;;;;;8.11;91.65;97194.91;4986513;28;20042;-59
2021/11/05 09:44:21;;;;;;;8.55;4.88;;;;;;;8.12;91.49;97203.88;4976997;28;20046;-60
2021/11/05 09:46:48;;;;;;;6.68;4.93;;;;;;;8.20;89.82;97203.78;4980514;28;20504;-57
2021/11/05 09:49:14;;;;;;;7.22;4.60;;;;;;;8.14;88.89;97209.78;4976205;28;20041;-57
2021/11/05 09:51:40;;;;;;;5.43;4.13;;;;;;;8.12;89.34;97215.63;4979513;28;20070;-59
2021/11/05 09:54:06;;;;;;;7.93;4.82;;;;;;;8.21;89.51;97221.78;4973959;28;20530;-58
2021/11/05 09:56:32;;;;;;;8.20;4.53;;;;;;;7.98;88.74;97217.84;4979305;28;20636;-60
2021/11/05 09:58:57;;;;;;;6.32;4.25;;;;;;;7.93;89.31;97227.03;4981840;28;20065;-61
2021/11/05 10:01:23;;;;;;;6.13;4.38;;;;;;;7.99;89.91;97233.06;4971958;28;20466;-60
2021/11/05 10:03:48;;;;;;;7.63;4.30;;;;;;;8.10;88.77;97230.72;4974965;28;20466;-61
2021/11/05 10:06:17;;;;;;;5.28;4.00;;;;;;;8.05;90.25;97229.00;4977490;28;20146;-58
2021/11/05 10:08:49;;;;;;;6.43;4.97;;;;;;;8.22;89.98;97231.53;4978334;28;20137;-61
2021/11/05 10:11:25;;;;;;;6.03;4.03;;;;;;;8.24;87.85;97233.94;4974458;28;20075;-60
2021/11/05 10:13:55;;;;;;;6.13;4.40;;;;;;;8.42;88.50;97234.56;4975670;28;20058;-60
2021/11/05 10:16:22;;;;;;;6.05;3.78;;;;;;;8.52;87.63;97234.13;4976795;28;20129;-59
2021/11/05 10:19:01;;;;;;;5.88;4.43;;;;;;;8.62;86.30;97241.06;4982213;28;20070;-60
2021/11/05 10:21:27;;;;;;;6.57;3.88;;;;;;;8.65;86.03;97228.69;4965049;28;21941;-59
2021/11/05 10:24:06;;;;;;;5.78;3.97;;;;;;;9.02;87.92;97240.38;4979913;28;20121;-58
2021/11/05 10:26:33;;;;;;;6.53;4.47;;;;;;;8.99;85.69;97241.06;4979926;28;20134;-60
2021/11/05 10:29:00;;;;;;;5.72;4.20;;;;;;;9.01;85.11;97238.78;4988752;28;20459;-61
2021/11/05 10:31:27;;;;;;;8.55;5.13;;;;;;;9.20;83.89;97235.47;4970528;28;20057;-62
2021/11/05 10:33:53;;;;;;;5.93;4.60;;;;;;;8.92;82.92;97238.13;4989154;28;20039;-61
2021/11/05 10:36:25;;;;;;;7.13;4.93;;;;;;;8.24;86.52;97234.72;4988551;28;20659;-59
2021/11/05 10:38:58;;;;;;;6.95;4.47;;;;;;;8.79;85.18;97246.31;4978188;28;20062;-58
2021/11/05 10:41:26;;;;;;;11.18;4.70;;;;;;;9.12;81.92;97241.84;4972257;28;20953;-59
2021/11/05 10:43:54;;;;;;;7.38;4.35;;;;;;;9.25;81.99;97232.47;4981003;28;20050;-60
2021/11/05 10:46:29;;;;;;;7.22;4.30;;;;;;;9.46;82.34;97235.06;4965363;28;20090;-61
2021/11/05 10:49:04;;;;;;;7.85;4.30;;;;;;;9.40;81.01;97241.09;4978705;28;20057;-62
2021/11/05 10:51:31;;;;;;;6.70;3.92;;;;;;;9.40;81.19;97241.09;4980323;28;20043;-60
2021/11/05 10:53:58;;;;;;;5.95;3.40;;;;;;;9.50;80.47;97238.69;4982729;28;20124;-60
2021/11/05 10:56:26;;;;;;;9.75;4.18;;;;;;;9.51;80.45;97242.25;4973519;28;21011;-60
2021/11/05 10:58:55;;;;;;;8.90;4.00;;;;;;;9.45;79.75;97241.66;4996217;28;20129;-60
2021/11/05 11:01:23;;;;;;;8.32;4.35;;;;;;;9.12;81.94;97247.31;4977520;28;20105;-57
2021/11/05 11:03:50;;;;;;;10.65;4.60;;;;;;;9.29;79.78;97240.78;4981990;28;20164;-59
2021/11/05 11:06:21;;;;;;;10.13;4.72;;;;;;;9.14;81.42;97245.81;4970205;28;20125;-60
2021/11/05 11:09:00;;;;;;;7.93;3.83;;;;;;;9.03;79.63;97249.38;4980541;28;20045;-60
2021/11/05 11:11:32;;;;;;;6.22;4.07;;;;;;;8.79;79.20;97250.97;4965584;28;20081;-59
2021/11/05 11:14:02;;;;;;;9.30;5.05;;;;;;;8.35;81.22;97248.72;4978951;28;20049;-60
2021/11/05 11:16:31;;;;;;;6.38;3.90;;;;;;;8.46;84.11;97242.88;4971639;28;20054;-58
2021/11/05 11:18:56;;;;;;;6.22;3.80;;;;;;;8.48;86.86;97255.06;4974276;28;20442;-59
2021/11/05 11:21:24;;;;;;;5.30;3.75;;;;;;;8.72;84.82;97248.03;4965779;28;20223;-60
2021/11/05 11:23:51;;;;;;;5.13;3.53;;;;;;;9.10;81.29;97252.34;4983993;28;20042;-62